createdAt,value
2022-08-17T12:57:49.820Z,33.54
2022-08-17T12:58:49.575Z,33.83
2022-08-17T12:59:49.437Z,34.01
2022-08-17T13:00:49.434Z,34.05
2022-08-17T13:01:49.507Z,34.12
2022-08-17T13:02:49.472Z,34.27
2022-08-17T13:03:49.470Z,34.28
2022-08-17T13:04:49.550Z,34.29
2022-08-17T13:05:49.481Z,34.41
2022-08-17T13:06:49.530Z,34.27
2022-08-17T13:07:49.693Z,33.92
2022-08-17T13:08:49.517Z,33.65
2022-08-17T13:09:49.508Z,33.36
2022-08-17T13:10:49.501Z,33.20
2022-08-17T13:11:49.524Z,33.01
2022-08-17T13:12:49.495Z,32.89
2022-08-17T13:13:49.578Z,32.74
2022-08-17T13:14:49.509Z,32.60
2022-08-17T13:15:49.573Z,32.61
2022-08-17T13:16:49.600Z,32.66
2022-08-17T13:17:49.864Z,32.47
2022-08-17T13:18:49.619Z,32.45
2022-08-17T13:19:49.611Z,32.33
2022-08-17T13:20:49.596Z,32.20
2022-08-17T13:21:49.666Z,32.15
2022-08-17T13:22:49.681Z,32.25
2022-08-17T13:23:53.746Z,32.23
2022-08-17T13:24:49.586Z,32.33
2022-08-17T13:25:49.676Z,32.41
2022-08-17T13:26:49.581Z,32.48
2022-08-17T13:27:49.794Z,32.55
2022-08-17T13:28:50.002Z,32.62
2022-08-17T13:29:51.318Z,32.66
2022-08-17T13:30:49.630Z,32.70
2022-08-17T13:31:52.656Z,32.76
2022-08-17T13:32:49.660Z,32.72
2022-08-17T13:33:50.106Z,32.77
2022-08-17T13:35:15.511Z,32.91
2022-08-17T13:35:49.986Z,33.12
2022-08-17T13:36:50.764Z,33.07
2022-08-17T13:37:49.815Z,33.19
2022-08-17T13:38:49.721Z,33.13
2022-08-17T13:39:49.752Z,33.36
2022-08-17T13:40:49.666Z,33.52
2022-08-17T13:41:49.671Z,33.51
2022-08-17T13:42:52.737Z,33.56
2022-08-17T13:43:49.925Z,33.72
2022-08-17T13:44:49.680Z,33.79
2022-08-17T13:45:50.671Z,33.89
2022-08-17T13:46:49.687Z,33.92
2022-08-17T13:47:49.895Z,33.93
2022-08-17T13:48:50.170Z,34.00
2022-08-17T13:49:49.779Z,33.87
2022-08-17T13:50:49.652Z,33.79
2022-08-17T13:51:49.751Z,33.82
2022-08-17T13:52:52.127Z,33.81
2022-08-17T13:53:50.094Z,33.82
2022-08-17T13:54:49.739Z,33.84
2022-08-17T13:55:49.721Z,33.86
2022-08-17T13:56:49.746Z,34.02
2022-08-17T13:57:50.006Z,34.08
2022-08-17T13:58:50.000Z,34.18
2022-08-17T13:59:54.190Z,34.19
2022-08-17T14:00:49.693Z,34.22
2022-08-17T14:01:53.894Z,33.91
2022-08-17T14:02:49.715Z,33.90
2022-08-17T14:03:51.379Z,33.87
2022-08-17T14:04:49.769Z,33.80
2022-08-17T14:05:49.878Z,33.78
2022-08-17T14:06:52.871Z,33.85
2022-08-17T14:07:49.936Z,33.90
2022-08-17T14:08:49.983Z,33.81
2022-08-17T14:09:49.756Z,33.79
2022-08-17T14:10:49.770Z,33.62
2022-08-17T14:11:49.803Z,33.14
2022-08-17T14:12:49.789Z,33.09
2022-08-17T14:13:50.113Z,33.02
2022-08-17T14:14:49.777Z,32.96
2022-08-17T14:15:54.002Z,32.97
2022-08-17T14:16:49.741Z,32.96
2022-08-17T14:17:49.856Z,33.04
2022-08-17T14:18:56.572Z,32.96
2022-08-17T14:19:49.887Z,32.99
2022-08-17T14:20:49.749Z,32.95
2022-08-17T14:21:49.818Z,32.93
2022-08-17T14:22:49.860Z,33.00
2022-08-17T14:23:54.944Z,33.08
2022-08-17T14:24:49.811Z,33.15
2022-08-17T14:25:49.803Z,33.09
2022-08-17T14:26:49.831Z,33.12
2022-08-17T14:27:53.445Z,33.12
2022-08-17T14:28:54.395Z,33.17
2022-08-17T14:29:49.860Z,33.16
2022-08-17T14:30:49.769Z,33.16
2022-08-17T14:31:54.206Z,33.13
2022-08-17T14:32:49.847Z,33.10
2022-08-17T14:33:49.884Z,33.07
2022-08-17T14:34:49.817Z,33.13
2022-08-17T14:35:49.863Z,33.15
2022-08-17T14:36:49.805Z,33.58
2022-08-17T14:37:50.067Z,33.20
2022-08-17T14:38:49.889Z,33.10
2022-08-17T14:39:49.940Z,33.04
2022-08-17T14:40:49.820Z,33.08
2022-08-17T14:41:49.874Z,33.07
2022-08-17T14:42:49.879Z,33.05
2022-08-17T14:43:49.856Z,33.08
2022-08-17T14:44:49.850Z,33.04
2022-08-17T14:45:49.925Z,33.24
2022-08-17T14:46:49.944Z,33.19
2022-08-17T14:47:50.031Z,33.21
2022-08-17T14:48:53.870Z,33.42
2022-08-17T14:49:49.825Z,33.41
2022-08-17T14:50:49.865Z,33.43
2022-08-17T14:51:49.869Z,33.47
2022-08-17T14:52:49.806Z,33.70
2022-08-17T14:53:50.122Z,33.84
2022-08-17T14:54:49.868Z,33.79
2022-08-17T14:55:49.877Z,33.52
2022-08-17T14:56:49.870Z,33.45
2022-08-17T14:57:50.023Z,33.40
2022-08-17T14:58:49.887Z,33.30
2022-08-17T14:59:54.759Z,33.27
2022-08-17T15:00:49.874Z,33.23
2022-08-17T15:01:50.022Z,33.38
2022-08-17T15:02:49.886Z,33.35
2022-08-17T15:03:49.918Z,33.36
2022-08-17T15:04:49.880Z,33.30
2022-08-17T15:05:49.968Z,33.19
2022-08-17T15:06:49.904Z,33.18
2022-08-17T15:07:50.012Z,33.13
2022-08-17T15:08:49.980Z,33.04
2022-08-17T15:09:49.896Z,32.94
2022-08-17T15:10:49.928Z,32.97
2022-08-17T15:11:49.967Z,33.11
2022-08-17T15:12:49.924Z,33.06
2022-08-17T15:13:52.919Z,32.99
2022-08-17T15:14:49.918Z,32.94
2022-08-17T15:15:49.979Z,32.86
2022-08-17T15:16:49.935Z,33.46
2022-08-17T15:17:52.610Z,32.86
2022-08-17T15:18:50.145Z,32.53
2022-08-17T15:19:50.053Z,32.58
2022-08-17T15:20:50.040Z,32.68
2022-08-17T15:21:50.077Z,32.72
2022-08-17T15:22:50.129Z,32.35
2022-08-17T15:23:50.201Z,32.64
2022-08-17T15:24:50.177Z,32.51
2022-08-17T15:25:50.243Z,32.36
2022-08-17T15:26:50.201Z,32.32
2022-08-17T15:27:50.414Z,32.29
2022-08-17T15:28:53.528Z,32.28
2022-08-17T15:29:50.294Z,32.19
2022-08-17T15:30:50.277Z,32.19
2022-08-17T15:31:50.324Z,32.20
2022-08-17T15:32:54.584Z,32.16
2022-08-17T15:33:50.813Z,32.13
2022-08-17T15:34:50.316Z,32.09
2022-08-17T15:35:50.323Z,32.02
2022-08-17T15:36:50.325Z,31.83
2022-08-17T15:37:50.446Z,31.86
2022-08-17T15:38:50.326Z,31.86
2022-08-17T15:39:50.413Z,31.84
2022-08-17T15:40:50.326Z,31.82
2022-08-17T15:41:58.140Z,31.80
2022-08-17T15:42:50.319Z,31.77
2022-08-17T15:43:50.674Z,31.88
2022-08-17T15:44:50.384Z,31.79
2022-08-17T15:45:58.787Z,31.74
2022-08-17T15:46:50.322Z,31.71
2022-08-17T15:47:50.480Z,31.73
2022-08-17T15:48:50.363Z,31.75
2022-08-17T15:49:50.340Z,31.64
2022-08-17T15:50:50.315Z,31.94
2022-08-17T15:51:50.395Z,32.05
2022-08-17T15:52:50.336Z,32.10
2022-08-17T15:53:50.642Z,32.24
2022-08-17T15:54:50.367Z,32.28
2022-08-17T15:55:50.350Z,32.19
2022-08-17T15:56:50.355Z,32.42
2022-08-17T15:57:50.605Z,32.11
2022-08-17T15:58:50.459Z,32.04
2022-08-17T15:59:52.052Z,32.09
2022-08-17T16:01:14.183Z,31.94
2022-08-17T16:03:01.430Z,31.92
2022-08-17T16:03:44.795Z,31.98
2022-08-17T16:04:06.730Z,31.96
2022-08-17T16:04:50.515Z,32.03
2022-08-17T16:05:50.458Z,31.84
2022-08-17T16:06:50.376Z,31.88
2022-08-17T16:07:50.590Z,31.80
2022-08-17T16:08:50.397Z,31.87
2022-08-17T16:09:50.441Z,31.87
2022-08-17T16:10:50.415Z,31.82
2022-08-17T16:11:55.198Z,31.77
2022-08-17T16:12:50.664Z,31.70
2022-08-17T16:13:54.791Z,31.64
2022-08-17T16:14:50.428Z,31.59
2022-08-17T16:15:56.726Z,31.56
2022-08-17T16:16:50.408Z,31.48
2022-08-17T16:17:50.616Z,31.48
2022-08-17T16:18:53.688Z,31.36
2022-08-17T16:19:50.414Z,31.39
2022-08-17T16:20:50.440Z,31.42
2022-08-17T16:21:50.431Z,31.44
2022-08-17T16:22:50.781Z,31.41
2022-08-17T16:23:50.449Z,31.36
2022-08-17T16:24:57.559Z,31.36
2022-08-17T16:25:53.760Z,31.37
2022-08-17T16:26:50.446Z,31.42
2022-08-17T16:27:50.628Z,31.48
2022-08-17T16:28:50.473Z,31.57
2022-08-17T16:29:51.755Z,31.58
2022-08-17T16:30:50.526Z,31.61
2022-08-17T16:31:50.459Z,31.51
2022-08-17T16:32:50.744Z,31.38
2022-08-17T16:34:03.768Z,31.31
2022-08-17T16:34:50.452Z,31.20
2022-08-17T16:35:50.464Z,31.19
